sensor_id;sensor_type;location;lat;lon;timestamp;pressure;altitude;pressure_sealevel;temperature;humidity
23118;BME280;11728;50.624;6.014;2023-02-15T00:00:28;99504.53;;;5.99;72.35
23118;BME280;11728;50.624;6.014;2023-02-15T00:05:30;99494.84;;;5.95;72.72
23118;BME280;11728;50.624;6.014;2023-02-15T00:10:31;99492.34;;;6.02;72.34
23118;BME280;11728;50.624;6.014;2023-02-15T00:15:31;99485.22;;;5.94;72.68
23118;BME280;11728;50.624;6.014;2023-02-15T00:20:31;99490.38;;;5.86;72.67
23118;BME280;11728;50.624;6.014;2023-02-15T00:25:32;99482.59;;;5.94;72.31
23118;BME280;11728;50.624;6.014;2023-02-15T00:30:32;99475.78;;;6.03;71.83
23118;BME280;11728;50.624;6.014;2023-02-15T00:35:34;99475.78;;;6.05;71.58
23118;BME280;11728;50.624;6.014;2023-02-15T00:40:34;99480.03;;;5.95;71.51
23118;BME280;11728;50.624;6.014;2023-02-15T00:45:34;99480.81;;;5.90;71.74
23118;BME280;11728;50.624;6.014;2023-02-15T00:50:35;99484.13;;;5.80;71.74
23118;BME280;11728;50.624;6.014;2023-02-15T00:55:35;99483.03;;;5.66;71.87
23118;BME280;11728;50.624;6.014;2023-02-15T01:00:36;99476.00;;;5.63;72.54
23118;BME280;11728;50.624;6.014;2023-02-15T01:05:37;99479.47;;;5.61;72.49
23118;BME280;11728;50.624;6.014;2023-02-15T01:10:37;99481.16;;;5.57;73.15
23118;BME280;11728;50.624;6.014;2023-02-15T01:15:37;99469.00;;;5.62;73.10
23118;BME280;11728;50.624;6.014;2023-02-15T01:20:39;99465.56;;;5.66;73.27
23118;BME280;11728;50.624;6.014;2023-02-15T01:25:41;99457.72;;;5.68;73.53
23118;BME280;11728;50.624;6.014;2023-02-15T01:30:42;99451.56;;;5.63;73.46
23118;BME280;11728;50.624;6.014;2023-02-15T01:35:43;99453.13;;;5.53;73.54
23118;BME280;11728;50.624;6.014;2023-02-15T01:40:44;99450.31;;;5.40;73.91
23118;BME280;11728;50.624;6.014;2023-02-15T01:45:46;99448.34;;;5.27;73.84
23118;BME280;11728;50.624;6.014;2023-02-15T01:50:55;99437.69;;;5.17;74.82
23118;BME280;11728;50.624;6.014;2023-02-15T01:56:32;99424.56;;;5.15;75.11
23118;BME280;11728;50.624;6.014;2023-02-15T02:01:33;99426.16;;;5.04;75.21
23118;BME280;11728;50.624;6.014;2023-02-15T02:06:35;99414.00;;;5.09;75.35
23118;BME280;11728;50.624;6.014;2023-02-15T02:11:38;99418.59;;;5.22;74.73
23118;BME280;11728;50.624;6.014;2023-02-15T02:17:00;99411.63;;;5.24;74.64
23118;BME280;11728;50.624;6.014;2023-02-15T02:27:28;99406.47;;;5.27;74.47
23118;BME280;11728;50.624;6.014;2023-02-15T02:43:33;99381.84;;;5.16;74.92
23118;BME280;11728;50.624;6.014;2023-02-15T02:48:38;99385.31;;;5.17;74.71
23118;BME280;11728;50.624;6.014;2023-02-15T02:53:38;99384.53;;;5.19;74.53
23118;BME280;11728;50.624;6.014;2023-02-15T02:58:44;99376.53;;;5.13;74.76
23118;BME280;11728;50.624;6.014;2023-02-15T03:03:51;99373.03;;;5.11;74.54
23118;BME280;11728;50.624;6.014;2023-02-15T03:08:58;99373.03;;;5.11;74.72
23118;BME280;11728;50.624;6.014;2023-02-15T03:14:00;99363.56;;;5.19;74.80
23118;BME280;11728;50.624;6.014;2023-02-15T03:19:17;99368.91;;;5.25;74.69
23118;BME280;11728;50.624;6.014;2023-02-15T03:24:24;99369.03;;;5.34;74.64
23118;BME280;11728;50.624;6.014;2023-02-15T03:29:27;99349.91;;;5.39;74.03
23118;BME280;11728;50.624;6.014;2023-02-15T03:34:28;99355.19;;;5.44;74.07
23118;BME280;11728;50.624;6.014;2023-02-15T03:45:02;99351.41;;;5.24;74.38
23118;BME280;11728;50.624;6.014;2023-02-15T03:50:08;99340.09;;;5.25;74.60
23118;BME280;11728;50.624;6.014;2023-02-15T03:55:30;99339.19;;;5.25;74.36
23118;BME280;11728;50.624;6.014;2023-02-15T04:00:35;99327.91;;;5.27;75.04
23118;BME280;11728;50.624;6.014;2023-02-15T04:05:54;99327.91;;;5.27;74.96
23118;BME280;11728;50.624;6.014;2023-02-15T04:10:55;99325.25;;;5.26;75.15
23118;BME280;11728;50.624;6.014;2023-02-15T04:15:56;99336.56;;;5.23;75.58
23118;BME280;11728;50.624;6.014;2023-02-15T04:21:06;99318.19;;;5.20;75.68
23118;BME280;11728;50.624;6.014;2023-02-15T04:26:25;99331.25;;;5.19;75.39
23118;BME280;11728;50.624;6.014;2023-02-15T04:31:25;99321.53;;;5.10;75.87
23118;BME280;11728;50.624;6.014;2023-02-15T04:36:25;99321.38;;;5.00;75.81
23118;BME280;11728;50.624;6.014;2023-02-15T04:41:26;99319.47;;;4.88;75.95
23118;BME280;11728;50.624;6.014;2023-02-15T04:46:26;99322.69;;;4.74;76.72
23118;BME280;11728;50.624;6.014;2023-02-15T04:51:27;99330.25;;;4.57;76.62
23118;BME280;11728;50.624;6.014;2023-02-15T04:56:27;99323.09;;;4.46;77.19
23118;BME280;11728;50.624;6.014;2023-02-15T05:01:29;99322.97;;;4.39;77.45
23118;BME280;11728;50.624;6.014;2023-02-15T05:06:30;99312.38;;;4.33;78.21
23118;BME280;11728;50.624;6.014;2023-02-15T05:11:31;99309.91;;;4.39;78.59
23118;BME280;11728;50.624;6.014;2023-02-15T05:16:31;99313.41;;;4.41;78.44
23118;BME280;11728;50.624;6.014;2023-02-15T05:21:32;99305.38;;;4.32;78.05
23118;BME280;11728;50.624;6.014;2023-02-15T05:26:33;99306.09;;;4.22;78.55
23118;BME280;11728;50.624;6.014;2023-02-15T05:31:52;99311.06;;;4.10;78.69
23118;BME280;11728;50.624;6.014;2023-02-15T05:36:52;99307.50;;;4.03;79.24
23118;BME280;11728;50.624;6.014;2023-02-15T05:41:52;99308.13;;;3.92;79.43
23118;BME280;11728;50.624;6.014;2023-02-15T05:46:53;99308.75;;;3.79;79.24
23118;BME280;11728;50.624;6.014;2023-02-15T05:51:53;99310.34;;;3.71;79.50
23118;BME280;11728;50.624;6.014;2023-02-15T05:56:53;99308.56;;;3.70;79.64
23118;BME280;11728;50.624;6.014;2023-02-15T06:01:54;99308.38;;;3.63;79.32
23118;BME280;11728;50.624;6.014;2023-02-15T06:06:54;99309.84;;;3.49;79.89
23118;BME280;11728;50.624;6.014;2023-02-15T06:11:55;99311.38;;;3.39;80.00
23118;BME280;11728;50.624;6.014;2023-02-15T06:16:55;99323.56;;;3.39;80.01
23118;BME280;11728;50.624;6.014;2023-02-15T06:21:55;99315.75;;;3.40;79.31
23118;BME280;11728;50.624;6.014;2023-02-15T06:26:56;99311.19;;;3.30;80.05
23118;BME280;11728;50.624;6.014;2023-02-15T06:31:56;99312.34;;;3.44;80.55
23118;BME280;11728;50.624;6.014;2023-02-15T06:36:56;99299.78;;;3.67;78.95
23118;BME280;11728;50.624;6.014;2023-02-15T06:41:57;99302.72;;;3.83;78.38
23118;BME280;11728;50.624;6.014;2023-02-15T06:46:58;99301.78;;;4.24;76.63
23118;BME280;11728;50.624;6.014;2023-02-15T06:51:58;99310.09;;;4.49;75.87
23118;BME280;11728;50.624;6.014;2023-02-15T06:56:58;99305.28;;;4.74;74.33
23118;BME280;11728;50.624;6.014;2023-02-15T07:01:59;99304.56;;;4.84;73.60
23118;BME280;11728;50.624;6.014;2023-02-15T07:06:59;99304.63;;;4.89;73.23
23118;BME280;11728;50.624;6.014;2023-02-15T07:11:59;99299.38;;;4.87;72.81
23118;BME280;11728;50.624;6.014;2023-02-15T07:17:18;99298.69;;;4.99;72.66
23118;BME280;11728;50.624;6.014;2023-02-15T07:22:18;99294.16;;;5.48;72.03
23118;BME280;11728;50.624;6.014;2023-02-15T07:27:19;99296.34;;;5.80;71.54
23118;BME280;11728;50.624;6.014;2023-02-15T07:32:20;99278.97;;;6.76;69.78
23118;BME280;11728;50.624;6.014;2023-02-15T07:37:20;99265.78;;;8.63;64.84
23118;BME280;11728;50.624;6.014;2023-02-15T07:42:21;99259.25;;;10.11;59.80
23118;BME280;11728;50.624;6.014;2023-02-15T07:47:22;99255.59;;;11.38;57.10
23118;BME280;11728;50.624;6.014;2023-02-15T07:52:22;99237.16;;;12.64;54.79
23118;BME280;11728;50.624;6.014;2023-02-15T07:57:23;99236.38;;;13.57;50.89
23118;BME280;11728;50.624;6.014;2023-02-15T08:02:23;99234.81;;;14.33;48.82
23118;BME280;11728;50.624;6.014;2023-02-15T08:07:23;99226.81;;;15.04;47.19
23118;BME280;11728;50.624;6.014;2023-02-15T08:12:26;99229.44;;;15.72;45.38
23118;BME280;11728;50.624;6.014;2023-02-15T08:17:26;99222.84;;;16.72;44.60
23118;BME280;11728;50.624;6.014;2023-02-15T08:22:26;99219.47;;;17.93;42.79
23118;BME280;11728;50.624;6.014;2023-02-15T08:27:27;99221.25;;;19.04;40.82
23118;BME280;11728;50.624;6.014;2023-02-15T08:32:27;99218.34;;;19.71;39.44
23118;BME280;11728;50.624;6.014;2023-02-15T08:37:27;99215.00;;;20.42;37.90
23118;BME280;11728;50.624;6.014;2023-02-15T08:42:28;99211.22;;;20.83;36.99
23118;BME280;11728;50.624;6.014;2023-02-15T08:47:28;99206.41;;;21.08;35.85
23118;BME280;11728;50.624;6.014;2023-02-15T08:52:28;99208.84;;;21.12;34.57
23118;BME280;11728;50.624;6.014;2023-02-15T08:57:29;99198.75;;;21.34;33.65
23118;BME280;11728;50.624;6.014;2023-02-15T09:02:29;99195.91;;;21.20;33.90
23118;BME280;11728;50.624;6.014;2023-02-15T09:07:30;99198.91;;;20.79;34.30
23118;BME280;11728;50.624;6.014;2023-02-15T09:12:30;99197.56;;;20.69;34.19
23118;BME280;11728;50.624;6.014;2023-02-15T09:17:30;99186.00;;;21.21;32.87
23118;BME280;11728;50.624;6.014;2023-02-15T09:22:30;99185.41;;;22.16;31.50
23118;BME280;11728;50.624;6.014;2023-02-15T09:27:31;99176.09;;;22.84;30.68
23118;BME280;11728;50.624;6.014;2023-02-15T09:32:31;99186.00;;;22.84;31.05
23118;BME280;11728;50.624;6.014;2023-02-15T09:37:32;99183.66;;;23.38;30.09
23118;BME280;11728;50.624;6.014;2023-02-15T09:42:51;99166.91;;;23.62;28.27
23118;BME280;11728;50.624;6.014;2023-02-15T09:47:58;99178.44;;;23.64;29.46
23118;BME280;11728;50.624;6.014;2023-02-15T09:53:07;99171.97;;;23.82;28.98
23118;BME280;11728;50.624;6.014;2023-02-15T10:03:30;99174.72;;;25.57;26.27
23118;BME280;11728;50.624;6.014;2023-02-15T10:30:11;99183.66;;;28.22;21.63
23118;BME280;11728;50.624;6.014;2023-02-15T10:40:40;99174.06;;;29.57;20.27
23118;BME280;11728;50.624;6.014;2023-02-15T10:45:53;99179.19;;;30.23;19.90
23118;BME280;11728;50.624;6.014;2023-02-15T10:50:57;99171.91;;;30.53;19.60
23118;BME280;11728;50.624;6.014;2023-02-15T11:01:40;99166.97;;;30.77;18.72
23118;BME280;11728;50.624;6.014;2023-02-15T11:06:53;99162.97;;;31.48;18.43
23118;BME280;11728;50.624;6.014;2023-02-15T11:11:57;99159.66;;;31.35;18.34
23118;BME280;11728;50.624;6.014;2023-02-15T11:17:17;99157.22;;;30.84;18.38
23118;BME280;11728;50.624;6.014;2023-02-15T11:22:19;99151.75;;;31.51;18.34
23118;BME280;11728;50.624;6.014;2023-02-15T11:27:30;99139.97;;;31.60;17.84
23118;BME280;11728;50.624;6.014;2023-02-15T11:32:35;99144.31;;;31.72;17.28
23118;BME280;11728;50.624;6.014;2023-02-15T11:37:45;99133.03;;;31.94;17.67
23118;BME280;11728;50.624;6.014;2023-02-15T11:42:47;99126.88;;;31.64;17.43
23118;BME280;11728;50.624;6.014;2023-02-15T11:47:50;99123.84;;;31.38;17.50
23118;BME280;11728;50.624;6.014;2023-02-15T11:52:58;99117.34;;;30.62;17.23
23118;BME280;11728;50.624;6.014;2023-02-15T12:03:09;99111.19;;;31.00;17.52
23118;BME280;11728;50.624;6.014;2023-02-15T12:08:18;99112.91;;;30.32;18.18
23118;BME280;11728;50.624;6.014;2023-02-15T12:13:20;99112.25;;;30.78;17.69
23118;BME280;11728;50.624;6.014;2023-02-15T12:18:36;99105.22;;;30.95;17.90
23118;BME280;11728;50.624;6.014;2023-02-15T12:23:51;99102.53;;;31.04;17.50
23118;BME280;11728;50.624;6.014;2023-02-15T12:28:53;99073.25;;;31.34;17.48
23118;BME280;11728;50.624;6.014;2023-02-15T12:33:56;99077.25;;;31.12;17.65
23118;BME280;11728;50.624;6.014;2023-02-15T12:39:16;99069.50;;;31.07;17.73
23118;BME280;11728;50.624;6.014;2023-02-15T12:44:23;99066.63;;;31.27;17.59
23118;BME280;11728;50.624;6.014;2023-02-15T12:49:27;99064.34;;;31.14;17.60
23118;BME280;11728;50.624;6.014;2023-02-15T12:54:40;99061.72;;;31.78;17.11
23118;BME280;11728;50.624;6.014;2023-02-15T12:59:55;99067.19;;;31.50;17.50
23118;BME280;11728;50.624;6.014;2023-02-15T13:04:57;99072.31;;;30.87;17.80
23118;BME280;11728;50.624;6.014;2023-02-15T13:10:04;99059.50;;;30.68;18.19
23118;BME280;11728;50.624;6.014;2023-02-15T13:15:23;99055.34;;;30.64;17.72
23118;BME280;11728;50.624;6.014;2023-02-15T13:20:25;99055.34;;;30.25;18.57
23118;BME280;11728;50.624;6.014;2023-02-15T13:25:32;99044.16;;;29.98;18.72
23118;BME280;11728;50.624;6.014;2023-02-15T13:30:38;99045.78;;;29.80;19.35
23118;BME280;11728;50.624;6.014;2023-02-15T13:35:46;99040.09;;;28.69;19.62
23118;BME280;11728;50.624;6.014;2023-02-15T13:40:58;99034.03;;;28.23;20.08
23118;BME280;11728;50.624;6.014;2023-02-15T13:56:33;99031.66;;;27.19;20.45
23118;BME280;11728;50.624;6.014;2023-02-15T14:34:04;99053.34;;;22.03;28.06
23118;BME280;11728;50.624;6.014;2023-02-15T14:39:22;99047.16;;;21.86;28.35
23118;BME280;11728;50.624;6.014;2023-02-15T14:44:49;99051.50;;;21.07;29.31
23118;BME280;11728;50.624;6.014;2023-02-15T14:49:54;99038.53;;;20.64;29.99
23118;BME280;11728;50.624;6.014;2023-02-15T14:54:56;99044.88;;;20.09;30.87
23118;BME280;11728;50.624;6.014;2023-02-15T14:59:59;99042.44;;;19.87;31.25
23118;BME280;11728;50.624;6.014;2023-02-15T15:05:19;99038.66;;;19.54;31.77
23118;BME280;11728;50.624;6.014;2023-02-15T15:30:47;99041.78;;;18.85;32.54
23118;BME280;11728;50.624;6.014;2023-02-15T15:36:12;99041.22;;;18.57;33.12
23118;BME280;11728;50.624;6.014;2023-02-15T15:47:09;99042.13;;;17.94;34.07
23118;BME280;11728;50.624;6.014;2023-02-15T15:52:17;99030.75;;;17.66;34.63
23118;BME280;11728;50.624;6.014;2023-02-15T16:02:25;99041.28;;;17.23;35.19
23118;BME280;11728;50.624;6.014;2023-02-15T16:07:26;99042.00;;;17.05;35.56
23118;BME280;11728;50.624;6.014;2023-02-15T16:12:34;99049.03;;;16.84;36.16
23118;BME280;11728;50.624;6.014;2023-02-15T16:17:35;99057.97;;;16.57;36.74
23118;BME280;11728;50.624;6.014;2023-02-15T16:22:38;99060.69;;;16.28;37.45
23118;BME280;11728;50.624;6.014;2023-02-15T16:27:40;99068.56;;;16.05;38.02
23118;BME280;11728;50.624;6.014;2023-02-15T16:32:42;99077.38;;;15.80;38.50
23118;BME280;11728;50.624;6.014;2023-02-15T16:37:43;99079.31;;;15.75;38.70
23118;BME280;11728;50.624;6.014;2023-02-15T16:42:44;99085.94;;;15.62;39.20
23118;BME280;11728;50.624;6.014;2023-02-15T16:47:46;99081.75;;;15.53;39.47
23118;BME280;11728;50.624;6.014;2023-02-15T16:52:48;99080.50;;;15.36;39.66
23118;BME280;11728;50.624;6.014;2023-02-15T16:57:50;99085.28;;;15.24;39.82
23118;BME280;11728;50.624;6.014;2023-02-15T17:02:59;99092.44;;;14.90;40.67
23118;BME280;11728;50.624;6.014;2023-02-15T17:13:16;99091.31;;;14.66;41.07
23118;BME280;11728;50.624;6.014;2023-02-15T17:18:18;99097.16;;;14.46;41.50
23118;BME280;11728;50.624;6.014;2023-02-15T17:23:31;99109.59;;;14.10;42.30
23118;BME280;11728;50.624;6.014;2023-02-15T17:28:32;99100.53;;;13.80;43.04
23118;BME280;11728;50.624;6.014;2023-02-15T17:38:33;99107.84;;;13.69;42.93
23118;BME280;11728;50.624;6.014;2023-02-15T17:43:33;99112.34;;;13.67;43.06
23118;BME280;11728;50.624;6.014;2023-02-15T17:48:35;99118.69;;;13.58;43.44
23118;BME280;11728;50.624;6.014;2023-02-15T17:53:36;99127.16;;;13.36;44.15
23118;BME280;11728;50.624;6.014;2023-02-15T17:58:38;99129.25;;;13.19;44.59
23118;BME280;11728;50.624;6.014;2023-02-15T18:03:45;99132.44;;;12.91;45.12
23118;BME280;11728;50.624;6.014;2023-02-15T18:09:09;99126.13;;;12.49;46.52
23118;BME280;11728;50.624;6.014;2023-02-15T18:14:29;99142.22;;;12.37;46.97
23118;BME280;11728;50.624;6.014;2023-02-15T18:19:38;99150.22;;;12.33;47.53
23118;BME280;11728;50.624;6.014;2023-02-15T18:24:40;99149.81;;;12.04;47.98
23118;BME280;11728;50.624;6.014;2023-02-15T18:29:40;99154.47;;;11.86;48.67
23118;BME280;11728;50.624;6.014;2023-02-15T18:34:42;99158.25;;;11.68;49.17
23118;BME280;11728;50.624;6.014;2023-02-15T18:39:50;99160.25;;;11.53;50.39
23118;BME280;11728;50.624;6.014;2023-02-15T18:45:00;99162.19;;;11.36;50.51
23118;BME280;11728;50.624;6.014;2023-02-15T18:50:04;99159.69;;;11.23;50.77
23118;BME280;11728;50.624;6.014;2023-02-15T18:55:15;99163.41;;;11.05;51.62
23118;BME280;11728;50.624;6.014;2023-02-15T19:00:25;99169.66;;;10.95;51.63
23118;BME280;11728;50.624;6.014;2023-02-15T19:05:28;99161.91;;;10.80;51.87
23118;BME280;11728;50.624;6.014;2023-02-15T19:10:31;99159.31;;;10.74;52.07
23118;BME280;11728;50.624;6.014;2023-02-15T19:15:32;99163.78;;;10.67;52.24
23118;BME280;11728;50.624;6.014;2023-02-15T19:20:36;99166.50;;;10.61;52.49
23118;BME280;11728;50.624;6.014;2023-02-15T19:25:38;99174.53;;;10.47;52.72
23118;BME280;11728;50.624;6.014;2023-02-15T19:30:39;99171.06;;;10.42;53.08
23118;BME280;11728;50.624;6.014;2023-02-15T19:35:39;99168.50;;;10.35;52.91
23118;BME280;11728;50.624;6.014;2023-02-15T19:40:39;99158.00;;;10.23;53.43
23118;BME280;11728;50.624;6.014;2023-02-15T19:45:40;99151.94;;;10.13;53.63
23118;BME280;11728;50.624;6.014;2023-02-15T19:50:40;99149.31;;;10.09;53.53
23118;BME280;11728;50.624;6.014;2023-02-15T19:55:44;99154.69;;;9.98;53.85
23118;BME280;11728;50.624;6.014;2023-02-15T20:00:46;99147.69;;;9.87;54.18
23118;BME280;11728;50.624;6.014;2023-02-15T20:05:47;99143.31;;;9.85;54.57
23118;BME280;11728;50.624;6.014;2023-02-15T20:10:48;99132.69;;;9.93;54.24
23118;BME280;11728;50.624;6.014;2023-02-15T20:15:49;99135.31;;;10.01;53.57
23118;BME280;11728;50.624;6.014;2023-02-15T20:20:51;99133.56;;;9.94;53.55
23118;BME280;11728;50.624;6.014;2023-02-15T20:25:53;99126.56;;;9.87;53.86
23118;BME280;11728;50.624;6.014;2023-02-15T20:30:54;99139.81;;;9.81;54.10
23118;BME280;11728;50.624;6.014;2023-02-15T20:35:54;99147.78;;;9.72;54.57
23118;BME280;11728;50.624;6.014;2023-02-15T20:40:55;99142.53;;;9.68;55.04
23118;BME280;11728;50.624;6.014;2023-02-15T20:46:14;99147.84;;;9.57;54.83
23118;BME280;11728;50.624;6.014;2023-02-15T20:51:20;99142.63;;;9.48;55.36
23118;BME280;11728;50.624;6.014;2023-02-15T20:56:22;99148.78;;;9.46;55.16
23118;BME280;11728;50.624;6.014;2023-02-15T21:01:23;99150.59;;;9.36;55.64
23118;BME280;11728;50.624;6.014;2023-02-15T21:06:24;99169.94;;;9.26;55.90
23118;BME280;11728;50.624;6.014;2023-02-15T21:11:24;99166.47;;;9.17;55.96
23118;BME280;11728;50.624;6.014;2023-02-15T21:16:24;99161.28;;;9.01;56.24
23118;BME280;11728;50.624;6.014;2023-02-15T21:21:25;99165.69;;;8.91;56.67
23118;BME280;11728;50.624;6.014;2023-02-15T21:26:25;99167.47;;;8.76;57.16
23118;BME280;11728;50.624;6.014;2023-02-15T21:31:26;99152.53;;;8.70;57.83
23118;BME280;11728;50.624;6.014;2023-02-15T21:36:27;99157.84;;;8.72;58.26
23118;BME280;11728;50.624;6.014;2023-02-15T21:41:28;99164.88;;;8.58;58.14
23118;BME280;11728;50.624;6.014;2023-02-15T21:46:47;99164.84;;;8.52;58.53
23118;BME280;11728;50.624;6.014;2023-02-15T21:52:08;99156.97;;;8.49;58.87
23118;BME280;11728;50.624;6.014;2023-02-15T21:57:15;99157.84;;;8.43;58.78
23118;BME280;11728;50.624;6.014;2023-02-15T22:02:28;99146.44;;;8.41;59.17
23118;BME280;11728;50.624;6.014;2023-02-15T22:07:29;99139.44;;;8.20;59.66
23118;BME280;11728;50.624;6.014;2023-02-15T22:12:29;99142.91;;;8.08;60.42
23118;BME280;11728;50.624;6.014;2023-02-15T22:17:30;99153.41;;;8.02;60.03
23118;BME280;11728;50.624;6.014;2023-02-15T22:22:30;99157.81;;;7.97;60.53
23118;BME280;11728;50.624;6.014;2023-02-15T22:27:37;99156.06;;;7.99;60.86
23118;BME280;11728;50.624;6.014;2023-02-15T22:32:38;99169.22;;;7.99;60.70
23118;BME280;11728;50.624;6.014;2023-02-15T22:37:39;99158.69;;;8.01;60.83
23118;BME280;11728;50.624;6.014;2023-02-15T22:42:40;99163.06;;;7.97;61.04
23118;BME280;11728;50.624;6.014;2023-02-15T22:47:41;99162.19;;;7.92;60.58
23118;BME280;11728;50.624;6.014;2023-02-15T22:52:42;99167.44;;;7.94;60.92
23118;BME280;11728;50.624;6.014;2023-02-15T22:57:44;99160.41;;;7.88;61.07
23118;BME280;11728;50.624;6.014;2023-02-15T23:02:46;99165.66;;;7.66;61.93
23118;BME280;11728;50.624;6.014;2023-02-15T23:07:47;99167.34;;;7.54;62.11
23118;BME280;11728;50.624;6.014;2023-02-15T23:18:39;99170.84;;;7.53;62.53
23118;BME280;11728;50.624;6.014;2023-02-15T23:23:42;99167.28;;;7.42;62.49
23118;BME280;11728;50.624;6.014;2023-02-15T23:28:44;99168.13;;;7.29;62.67
23118;BME280;11728;50.624;6.014;2023-02-15T23:33:46;99169.84;;;7.18;63.06
23118;BME280;11728;50.624;6.014;2023-02-15T23:38:46;99175.97;;;7.17;62.72
23118;BME280;11728;50.624;6.014;2023-02-15T23:48:53;99171.59;;;7.22;63.40
23118;BME280;11728;50.624;6.014;2023-02-15T23:53:53;99175.94;;;7.11;63.72
23118;BME280;11728;50.624;6.014;2023-02-15T23:58:54;99176.78;;;7.05;63.21
